Time;durP1;ratioP1;P1;durP2;ratioP2;P2;SDS_P1;SDS_P2;PMS_P1;PMS_P2;Temp;Humidity;BMP_temperature;BMP_pressure;BME280_temperature;BME280_humidity;BME280_pressure;Samples;Min_cycle;Max_cycle;Signal;HPM_P1;HPM_P2
2023/05/02 00:01:47;;;;;;;;;;;22.50;62.80;;;;;;1618983;72;765;-67
2023/05/02 00:03:49;;;;;;;;;;;22.50;62.80;;;;;;1608179;73;737;-69
2023/05/02 00:05:51;;;;;;;;;;;22.40;62.50;;;;;;1607427;73;765;-69
2023/05/02 00:07:53;;;;;;;;;;;22.50;62.70;;;;;;1605680;72;1452;-68
2023/05/02 00:09:55;;;;;;;;;;;22.40;62.50;;;;;;1618368;72;1154;-69
2023/05/02 00:11:56;;;;;;;;;;;22.50;62.80;;;;;;1604658;73;796;-68
2023/05/02 00:13:58;;;;;;;;;;;22.30;62.60;;;;;;1611863;72;681;-67
2023/05/02 00:16:00;;;;;;;;;;;22.50;62.70;;;;;;1604235;72;1926;-71
2023/05/02 00:18:02;;;;;;;;;;;22.50;62.90;;;;;;1611604;72;752;-70
2023/05/02 00:20:04;;;;;;;;;;;22.40;62.70;;;;;;1603760;73;1156;-68
2023/05/02 00:22:06;;;;;;;;;;;22.40;62.60;;;;;;1610479;72;1412;-69
2023/05/02 00:24:08;;;;;;;;;;;22.30;62.90;;;;;;1601591;72;763;-69
2023/05/02 00:26:10;;;;;;;;;;;22.40;63.00;;;;;;1607654;72;766;-69
2023/05/02 00:28:12;;;;;;;;;;;22.40;62.70;;;;;;1599341;72;752;-69
2023/05/02 00:30:14;;;;;;;;;;;22.30;62.70;;;;;;1612591;73;1161;-69
2023/05/02 00:32:16;;;;;;;;;;;22.30;62.80;;;;;;1614070;72;753;-70
2023/05/02 00:34:18;;;;;;;;;;;22.30;62.60;;;;;;1602068;72;645;-70
2023/05/02 00:36:20;;;;;;;;;;;22.40;62.50;;;;;;1600304;72;1944;-69
2023/05/02 00:38:22;;;;;;;;;;;22.40;62.40;;;;;;1623237;72;775;-70
2023/05/02 00:40:24;;;;;;;;;;;22.40;62.40;;;;;;1609508;72;1197;-70
2023/05/02 00:42:28;;;;;;;;;;;22.40;62.40;;;;;;1616018;72;811;-69
2023/05/02 00:44:29;;;;;;;;;;;22.40;62.50;;;;;;1600913;73;1247;-70
2023/05/02 00:46:31;;;;;;;;;;;22.40;62.40;;;;;;1614433;73;761;-69
2023/05/02 00:48:33;;;;;;;;;;;22.40;62.30;;;;;;1613738;73;826;-70
2023/05/02 00:50:42;;;;;;;;;;;22.40;62.30;;;;;;1601666;73;1472;-70
2023/05/02 00:52:44;;;;;;;;;;;22.50;62.30;;;;;;1621722;72;627;-70
2023/05/02 00:54:46;;;;;;;;;;;22.50;62.30;;;;;;1612741;72;752;-69
2023/05/02 00:56:48;;;;;;;;;;;22.50;62.30;;;;;;1606083;72;1930;-69
2023/05/02 00:58:50;;;;;;;;;;;22.50;62.30;;;;;;1609538;72;1143;-70
2023/05/02 01:01:02;;;;;;;;;;;22.40;62.10;;;;;;1607402;73;748;-71
2023/05/02 01:03:06;;;;;;;;;;;22.50;62.10;;;;;;1598978;72;1673;-70
2023/05/02 01:05:18;;;;;;;;;;;22.50;62.10;;;;;;1609284;72;1474;-70
2023/05/02 01:07:22;;;;;;;;;;;22.40;62.00;;;;;;1612207;72;780;-70
2023/05/02 01:09:26;;;;;;;;;;;22.40;62.00;;;;;;1609101;72;1226;-70
2023/05/02 01:11:29;;;;;;;;;;;22.50;62.10;;;;;;1613447;73;746;-69
2023/05/02 01:13:32;;;;;;;;;;;22.50;62.00;;;;;;1614923;72;1503;-69
2023/05/02 01:15:35;;;;;;;;;;;22.50;62.10;;;;;;1612940;73;1922;-69
2023/05/02 01:17:37;;;;;;;;;;;22.50;62.10;;;;;;1605745;72;733;-68
2023/05/02 01:19:42;;;;;;;;;;;22.40;61.90;;;;;;1610826;72;1447;-69
2023/05/02 01:21:44;;;;;;;;;;;22.40;61.80;;;;;;1613976;73;813;-69
2023/05/02 01:23:48;;;;;;;;;;;22.50;61.90;;;;;;1613128;72;744;-69
2023/05/02 01:25:55;;;;;;;;;;;22.40;61.80;;;;;;1610466;73;1002;-68
2023/05/02 01:28:15;;;;;;;;;;;22.30;61.70;;;;;;1592064;73;1038;-66
2023/05/02 01:30:17;;;;;;;;;;;22.40;61.90;;;;;;1602614;73;1123;-68
2023/05/02 01:32:20;;;;;;;;;;;22.30;61.90;;;;;;1608933;73;1434;-68
2023/05/02 01:34:21;;;;;;;;;;;22.30;61.80;;;;;;1612422;72;758;-68
2023/05/02 01:36:25;;;;;;;;;;;22.40;61.80;;;;;;1589209;72;1934;-68
2023/05/02 01:38:27;;;;;;;;;;;22.40;61.80;;;;;;1609136;72;758;-68
2023/05/02 01:40:29;;;;;;;;;;;22.40;61.70;;;;;;1595313;73;1164;-68
2023/05/02 01:42:32;;;;;;;;;;;22.30;62.00;;;;;;1611931;73;810;-68
2023/05/02 01:44:35;;;;;;;;;;;22.40;61.90;;;;;;1595167;73;767;-68
2023/05/02 01:46:37;;;;;;;;;;;22.30;61.90;;;;;;1605866;73;1425;-69
2023/05/02 01:48:40;;;;;;;;;;;22.30;62.10;;;;;;1604837;73;785;-69
2023/05/02 01:50:43;;;;;;;;;;;22.30;61.90;;;;;;1609165;73;758;-68
2023/05/02 01:52:45;;;;;;;;;;;22.30;61.90;;;;;;1624113;72;746;-68
2023/05/02 01:54:47;;;;;;;;;;;22.30;62.00;;;;;;1608042;73;754;-69
2023/05/02 01:56:49;;;;;;;;;;;22.20;62.00;;;;;;1614337;73;1936;-68
2023/05/02 01:58:50;;;;;;;;;;;22.20;62.10;;;;;;1604193;73;1093;-69
2023/05/02 02:00:52;;;;;;;;;;;22.20;62.20;;;;;;1612324;73;1313;-69
2023/05/02 02:02:54;;;;;;;;;;;22.20;62.10;;;;;;1619223;73;810;-68
2023/05/02 02:04:56;;;;;;;;;;;22.20;62.00;;;;;;1603661;72;733;-68
2023/05/02 02:07:00;;;;;;;;;;;22.10;62.10;;;;;;1604746;72;703;-69
2023/05/02 02:09:02;;;;;;;;;;;22.20;62.20;;;;;;1607454;73;1183;-69
2023/05/02 02:11:06;;;;;;;;;;;22.20;62.20;;;;;;1608399;73;757;-69
2023/05/02 02:13:09;;;;;;;;;;;22.20;62.30;;;;;;1612073;72;736;-69
2023/05/02 02:15:18;;;;;;;;;;;22.20;62.30;;;;;;1612431;72;1420;-69
2023/05/02 02:17:22;;;;;;;;;;;22.30;62.20;;;;;;1604227;72;1929;-68
2023/05/02 02:19:24;;;;;;;;;;;22.20;62.00;;;;;;1607067;73;1141;-69
2023/05/02 02:21:26;;;;;;;;;;;22.30;62.00;;;;;;1617568;72;810;-68
2023/05/02 02:23:28;;;;;;;;;;;22.30;61.90;;;;;;1601058;73;737;-67
2023/05/02 02:25:30;;;;;;;;;;;22.30;61.80;;;;;;1606410;73;739;-68
2023/05/02 02:27:32;;;;;;;;;;;22.30;61.70;;;;;;1607951;73;723;-68
2023/05/02 02:29:34;;;;;;;;;;;22.30;61.60;;;;;;1610165;72;1322;-68
2023/05/02 02:31:38;;;;;;;;;;;22.30;61.70;;;;;;1600743;73;769;-69
2023/05/02 02:33:39;;;;;;;;;;;22.30;62.00;;;;;;1603784;72;1434;-68
2023/05/02 02:35:42;;;;;;;;;;;22.30;62.20;;;;;;1613651;72;983;-68
2023/05/02 02:37:45;;;;;;;;;;;22.40;62.30;;;;;;1607202;73;1939;-68
2023/05/02 02:40:04;;;;;;;;;;;22.20;62.20;;;;;;1609157;73;1532;-68
2023/05/02 02:42:07;;;;;;;;;;;22.30;62.30;;;;;;1614441;72;679;-69
2023/05/02 02:44:26;;;;;;;;;;;22.20;62.30;;;;;;1604228;73;1514;-68
2023/05/02 02:46:47;;;;;;;;;;;22.30;62.20;;;;;;1594320;72;663;-69
2023/05/02 02:48:57;;;;;;;;;;;22.30;62.30;;;;;;1607470;72;1130;-69
2023/05/02 02:51:03;;;;;;;;;;;22.30;62.30;;;;;;1622470;72;1465;-68
2023/05/02 02:53:07;;;;;;;;;;;22.30;62.10;;;;;;1593774;73;820;-69
2023/05/02 02:55:10;;;;;;;;;;;22.30;62.00;;;;;;1605081;72;759;-68
2023/05/02 02:57:14;;;;;;;;;;;22.30;62.00;;;;;;1617324;72;1937;-69
2023/05/02 02:59:29;;;;;;;;;;;22.40;62.00;;;;;;1610125;72;1167;-68
2023/05/02 03:01:31;;;;;;;;;;;22.30;62.00;;;;;;1584556;73;1004;-69
2023/05/02 03:03:33;;;;;;;;;;;22.40;62.00;;;;;;1619772;72;670;-69
2023/05/02 03:05:35;;;;;;;;;;;22.40;62.00;;;;;;1622142;72;741;-70
2023/05/02 03:07:37;;;;;;;;;;;22.30;61.90;;;;;;1602462;73;671;-68
2023/05/02 03:09:42;;;;;;;;;;;22.30;62.10;;;;;;1599748;72;1179;-69
2023/05/02 03:11:45;;;;;;;;;;;22.40;62.10;;;;;;1619950;72;1456;-69
2023/05/02 03:13:47;;;;;;;;;;;22.30;62.10;;;;;;1625008;72;751;-69
2023/05/02 03:15:55;;;;;;;;;;;22.40;62.10;;;;;;1616153;73;759;-68
2023/05/02 03:17:57;;;;;;;;;;;22.30;62.10;;;;;;1619594;73;1953;-66
2023/05/02 03:19:58;;;;;;;;;;;22.30;62.10;;;;;;1596714;72;1176;-70
2023/05/02 03:22:00;;;;;;;;;;;22.30;61.90;;;;;;1616755;72;761;-68
2023/05/02 03:24:02;;;;;;;;;;;22.30;61.80;;;;;;1604161;72;778;-69
2023/05/02 03:26:05;;;;;;;;;;;22.30;61.90;;;;;;1613820;73;1400;-68
2023/05/02 03:28:06;;;;;;;;;;;22.40;61.80;;;;;;1576258;74;690;-68
2023/05/02 03:30:08;;;;;;;;;;;22.40;61.70;;;;;;1603610;73;1145;-68
2023/05/02 03:32:10;;;;;;;;;;;22.40;61.80;;;;;;1618788;72;784;-68
2023/05/02 03:34:12;;;;;;;;;;;22.40;61.90;;;;;;1613243;72;775;-68
2023/05/02 03:36:15;;;;;;;;;;;22.30;61.90;;;;;;1608448;72;723;-68
2023/05/02 03:38:16;;;;;;;;;;;22.30;62.00;;;;;;1597462;72;1937;-69
2023/05/02 03:40:20;;;;;;;;;;;22.30;62.10;;;;;;1607921;72;1542;-68
2023/05/02 03:42:22;;;;;;;;;;;22.40;62.00;;;;;;1610735;72;766;-68
2023/05/02 03:44:24;;;;;;;;;;;22.40;61.90;;;;;;1615296;72;786;-68
2023/05/02 03:46:26;;;;;;;;;;;22.30;61.80;;;;;;1610086;72;746;-69
2023/05/02 03:48:28;;;;;;;;;;;22.40;61.90;;;;;;1586965;72;742;-68
2023/05/02 03:50:29;;;;;;;;;;;22.30;61.90;;;;;;1602849;73;1206;-68
2023/05/02 03:52:32;;;;;;;;;;;22.30;61.90;;;;;;1598487;72;1390;-68
2023/05/02 03:54:34;;;;;;;;;;;22.30;61.90;;;;;;1565628;75;748;-67
2023/05/02 03:56:37;;;;;;;;;;;22.30;61.90;;;;;;1615839;73;1922;-67
2023/05/02 03:58:39;;;;;;;;;;;22.40;61.90;;;;;;1609134;73;757;-67
2023/05/02 04:00:41;;;;;;;;;;;22.30;61.90;;;;;;1609765;73;706;-68
2023/05/02 04:02:43;;;;;;;;;;;22.30;61.90;;;;;;1611448;72;796;-68
2023/05/02 04:04:45;;;;;;;;;;;22.30;62.50;;;;;;1606740;72;742;-68
2023/05/02 04:06:47;;;;;;;;;;;22.20;62.70;;;;;;1612807;72;1427;-68
2023/05/02 04:08:48;;;;;;;;;;;22.20;63.00;;;;;;1604818;72;1199;-68
2023/05/02 04:10:51;;;;;;;;;;;22.20;63.00;;;;;;1611187;73;799;-68
2023/05/02 04:12:53;;;;;;;;;;;22.20;62.60;;;;;;1604819;73;722;-68
2023/05/02 04:14:55;;;;;;;;;;;22.20;62.40;;;;;;1624961;72;804;-68
2023/05/02 04:16:57;;;;;;;;;;;22.20;62.20;;;;;;1604242;73;1934;-66
2023/05/02 04:18:59;;;;;;;;;;;22.20;62.00;;;;;;1619847;72;1180;-68
2023/05/02 04:21:01;;;;;;;;;;;22.30;62.20;;;;;;1614965;73;1396;-68
2023/05/02 04:23:03;;;;;;;;;;;22.20;62.00;;;;;;1606008;73;773;-68
2023/05/02 04:25:06;;;;;;;;;;;22.20;62.00;;;;;;1618785;73;745;-68
2023/05/02 04:27:08;;;;;;;;;;;22.20;62.10;;;;;;1611755;72;770;-70
2023/05/02 04:29:10;;;;;;;;;;;22.10;62.10;;;;;;1606675;73;1135;-68
2023/05/02 04:31:11;;;;;;;;;;;22.20;62.30;;;;;;1600092;72;761;-67
2023/05/02 04:33:13;;;;;;;;;;;22.20;62.20;;;;;;1605908;72;768;-69
2023/05/02 04:35:16;;;;;;;;;;;22.20;62.30;;;;;;1608746;72;1438;-68
2023/05/02 04:37:18;;;;;;;;;;;22.20;62.20;;;;;;1603141;73;1940;-66
2023/05/02 04:39:19;;;;;;;;;;;22.20;62.10;;;;;;1607975;72;1213;-68
2023/05/02 04:41:22;;;;;;;;;;;22.20;62.10;;;;;;1604907;72;751;-68
2023/05/02 04:43:23;;;;;;;;;;;22.20;62.20;;;;;;1618401;73;801;-68
2023/05/02 04:45:25;;;;;;;;;;;22.20;62.00;;;;;;1615598;72;782;-69
2023/05/02 04:47:27;;;;;;;;;;;22.20;61.90;;;;;;1598206;72;763;-68
2023/05/02 04:49:29;;;;;;;;;;;22.30;62.00;;;;;;1608674;72;1553;-66
2023/05/02 04:51:31;;;;;;;;;;;22.30;61.80;;;;;;1616860;72;771;-67
2023/05/02 04:53:33;;;;;;;;;;;22.30;61.80;;;;;;1604156;72;701;-67
2023/05/02 04:55:35;;;;;;;;;;;22.30;61.70;;;;;;1613647;72;748;-68
2023/05/02 04:57:38;;;;;;;;;;;22.30;61.60;;;;;;1610490;73;1928;-68
2023/05/02 04:59:40;;;;;;;;;;;22.30;61.60;;;;;;1594824;72;1170;-69
2023/05/02 05:01:42;;;;;;;;;;;22.30;61.60;;;;;;1613534;72;724;-66
2023/05/02 05:03:44;;;;;;;;;;;22.30;61.60;;;;;;1604095;72;1432;-70
2023/05/02 05:05:46;;;;;;;;;;;22.30;61.70;;;;;;1613970;73;749;-69
2023/05/02 05:07:48;;;;;;;;;;;22.30;61.60;;;;;;1599249;73;751;-69
2023/05/02 05:09:50;;;;;;;;;;;22.30;61.50;;;;;;1619896;72;1109;-69
2023/05/02 05:11:52;;;;;;;;;;;22.30;61.60;;;;;;1596377;72;756;-65
2023/05/02 05:13:54;;;;;;;;;;;22.30;61.90;;;;;;1618478;72;653;-64
2023/05/02 05:15:56;;;;;;;;;;;22.30;62.10;;;;;;1601573;73;816;-63
2023/05/02 05:17:58;;;;;;;;;;;22.20;62.00;;;;;;1600352;72;1936;-64
2023/05/02 05:19:59;;;;;;;;;;;22.20;61.90;;;;;;1606138;72;1153;-65
2023/05/02 05:22:01;;;;;;;;;;;22.20;61.80;;;;;;1603087;73;787;-65
2023/05/02 05:24:03;;;;;;;;;;;22.20;61.70;;;;;;1606941;72;773;-65
2023/05/02 05:26:10;;;;;;;;;;;22.20;61.50;;;;;;1617599;73;926;-65
2023/05/02 05:28:11;;;;;;;;;;;22.20;61.40;;;;;;1602420;73;1186;-65
2023/05/02 05:30:13;;;;;;;;;;;22.20;61.30;;;;;;1615969;72;1172;-63
2023/05/02 05:32:15;;;;;;;;;;;22.20;61.20;;;;;;1610793;72;1471;-63
2023/05/02 05:34:17;;;;;;;;;;;22.20;61.20;;;;;;1614809;72;772;-65
2023/05/02 05:36:19;;;;;;;;;;;22.20;61.20;;;;;;1614952;73;768;-66
2023/05/02 05:38:21;;;;;;;;;;;22.20;61.30;;;;;;1608308;72;1941;-65
2023/05/02 05:40:23;;;;;;;;;;;22.20;61.60;;;;;;1604512;73;1205;-65
2023/05/02 05:42:25;;;;;;;;;;;22.20;61.70;;;;;;1607803;73;771;-65
2023/05/02 05:44:27;;;;;;;;;;;22.10;61.60;;;;;;1611705;72;744;-65
2023/05/02 05:46:29;;;;;;;;;;;22.20;61.50;;;;;;1609798;72;1421;-65
2023/05/02 05:48:31;;;;;;;;;;;22.20;61.50;;;;;;1606892;73;760;-66
2023/05/02 05:50:33;;;;;;;;;;;22.20;61.50;;;;;;1606416;72;1170;-66
2023/05/02 05:52:36;;;;;;;;;;;22.20;61.40;;;;;;1618363;73;756;-65
2023/05/02 05:54:38;;;;;;;;;;;22.10;61.30;;;;;;1604675;73;782;-63
2023/05/02 05:56:40;;;;;;;;;;;22.10;61.30;;;;;;1607761;73;748;-65
2023/05/02 05:58:43;;;;;;;;;;;22.10;61.40;;;;;;1610594;72;1920;-64
2023/05/02 06:00:44;;;;;;;;;;;22.10;61.40;;;;;;1617952;73;1483;-64
2023/05/02 06:02:46;;;;;;;;;;;22.20;61.30;;;;;;1597592;72;746;-63
2023/05/02 06:04:48;;;;;;;;;;;22.10;61.20;;;;;;1617515;73;777;-65
2023/05/02 06:06:52;;;;;;;;;;;22.10;61.30;;;;;;1611356;72;745;-65
2023/05/02 06:08:54;;;;;;;;;;;22.10;61.20;;;;;;1617979;72;1073;-65
2023/05/02 06:10:56;;;;;;;;;;;22.10;61.30;;;;;;1613609;73;809;-64
2023/05/02 06:12:58;;;;;;;;;;;22.10;61.20;;;;;;1608287;73;763;-66
2023/05/02 06:15:00;;;;;;;;;;;22.10;61.30;;;;;;1609628;72;1535;-68
2023/05/02 06:17:02;;;;;;;;;;;22.10;61.20;;;;;;1584909;73;775;-65
2023/05/02 06:19:03;;;;;;;;;;;22.00;60.90;;;;;;1618555;73;1928;-66
2023/05/02 06:21:05;;;;;;;;;;;22.00;60.30;;;;;;1617126;72;767;-67
2023/05/02 06:23:07;;;;;;;;;;;22.10;60.10;;;;;;1610874;72;666;-66
2023/05/02 06:25:09;;;;;;;;;;;22.10;59.60;;;;;;1613617;73;765;-66
2023/05/02 06:27:11;;;;;;;;;;;22.10;59.20;;;;;;1601869;72;755;-67
2023/05/02 06:29:13;;;;;;;;;;;22.10;59.20;;;;;;1602904;73;1138;-66
2023/05/02 06:31:15;;;;;;;;;;;22.10;59.00;;;;;;1614162;73;780;-66
2023/05/02 06:33:17;;;;;;;;;;;22.10;59.00;;;;;;1613368;72;766;-66
2023/05/02 06:35:19;;;;;;;;;;;22.20;58.20;;;;;;1598592;72;803;-65
2023/05/02 06:37:21;;;;;;;;;;;22.20;58.10;;;;;;1605251;73;768;-66
2023/05/02 06:39:23;;;;;;;;;;;22.20;57.80;;;;;;1598329;72;1929;-66
2023/05/02 06:41:25;;;;;;;;;;;22.20;57.60;;;;;;1605966;72;1412;-67
2023/05/02 06:43:27;;;;;;;;;;;22.20;57.50;;;;;;1609598;73;768;-66
2023/05/02 06:45:29;;;;;;;;;;;22.20;57.10;;;;;;1611274;72;773;-66
2023/05/02 06:47:31;;;;;;;;;;;22.20;57.10;;;;;;1611676;73;767;-67
2023/05/02 06:49:33;;;;;;;;;;;22.30;56.90;;;;;;1615946;72;1226;-67
2023/05/02 06:51:34;;;;;;;;;;;22.30;56.80;;;;;;1613325;72;742;-66
2023/05/02 06:53:36;;;;;;;;;;;22.40;56.50;;;;;;1618183;73;772;-67
2023/05/02 06:55:38;;;;;;;;;;;22.30;56.40;;;;;;1608970;73;1414;-67
2023/05/02 06:57:40;;;;;;;;;;;22.30;56.30;;;;;;1603388;72;1930;-66
2023/05/02 06:59:42;;;;;;;;;;;22.30;56.20;;;;;;1616147;72;1189;-66
2023/05/02 07:01:44;;;;;;;;;;;22.40;56.00;;;;;;1601049;72;758;-66
2023/05/02 07:03:46;;;;;;;;;;;22.30;55.80;;;;;;1608323;73;758;-66
2023/05/02 07:05:48;;;;;;;;;;;22.40;55.90;;;;;;1609314;73;737;-66
2023/05/02 07:07:50;;;;;;;;;;;22.40;55.80;;;;;;1616058;73;752;-65
2023/05/02 07:09:51;;;;;;;;;;;22.30;55.70;;;;;;1594137;72;1411;-66
2023/05/02 07:11:53;;;;;;;;;;;22.40;55.60;;;;;;1606171;73;769;-66
2023/05/02 07:13:55;;;;;;;;;;;22.40;55.60;;;;;;1607681;73;804;-66
2023/05/02 07:15:57;;;;;;;;;;;22.40;55.30;;;;;;1611485;73;794;-65
2023/05/02 07:17:59;;;;;;;;;;;22.40;55.00;;;;;;1605399;73;1922;-66
2023/05/02 07:20:01;;;;;;;;;;;22.30;55.10;;;;;;1604305;72;1162;-63
2023/05/02 07:22:03;;;;;;;;;;;22.40;55.00;;;;;;1607402;72;782;-65
2023/05/02 07:24:05;;;;;;;;;;;22.40;54.90;;;;;;1606152;73;1433;-66
2023/05/02 07:26:07;;;;;;;;;;;22.40;55.00;;;;;;1600395;73;703;-66
2023/05/02 07:28:08;;;;;;;;;;;22.40;54.70;;;;;;1612584;73;776;-64
2023/05/02 07:30:11;;;;;;;;;;;22.40;54.80;;;;;;1613767;72;1145;-66
2023/05/02 07:32:12;;;;;;;;;;;22.40;54.80;;;;;;1617699;72;655;-65
2023/05/02 07:34:14;;;;;;;;;;;22.50;54.70;;;;;;1604396;73;784;-66
2023/05/02 07:36:17;;;;;;;;;;;22.50;54.60;;;;;;1604922;72;747;-67
2023/05/02 07:38:18;;;;;;;;;;;22.50;54.50;;;;;;1609746;72;1921;-66
2023/05/02 07:40:20;;;;;;;;;;;22.50;54.30;;;;;;1605050;72;1160;-64
2023/05/02 07:42:22;;;;;;;;;;;22.50;54.40;;;;;;1609964;73;762;-65
2023/05/02 07:44:24;;;;;;;;;;;22.50;54.30;;;;;;1610444;72;695;-66
2023/05/02 07:46:26;;;;;;;;;;;22.40;54.40;;;;;;1599415;72;684;-66
2023/05/02 07:48:28;;;;;;;;;;;22.40;54.20;;;;;;1610650;72;744;-65
2023/05/02 07:50:30;;;;;;;;;;;22.40;54.30;;;;;;1595418;72;1239;-66
2023/05/02 07:52:32;;;;;;;;;;;22.40;54.30;;;;;;1611832;72;1407;-66
2023/05/02 07:54:34;;;;;;;;;;;22.30;54.50;;;;;;1607418;73;771;-66
2023/05/02 07:56:36;;;;;;;;;;;22.40;54.60;;;;;;1610455;72;709;-66
2023/05/02 07:58:38;;;;;;;;;;;22.30;54.60;;;;;;1611198;72;1933;-66
2023/05/02 08:00:40;;;;;;;;;;;22.20;54.50;;;;;;1608989;73;1204;-65
2023/05/02 08:02:42;;;;;;;;;;;22.30;54.60;;;;;;1596988;72;757;-66
2023/05/02 08:04:43;;;;;;;;;;;22.30;54.50;;;;;;1605512;73;737;-65
2023/05/02 08:06:45;;;;;;;;;;;22.20;54.50;;;;;;1613442;73;1437;-66
2023/05/02 08:08:47;;;;;;;;;;;22.30;54.70;;;;;;1612459;72;1143;-66
2023/05/02 08:10:50;;;;;;;;;;;22.20;54.30;;;;;;1603422;72;793;-66
2023/05/02 08:12:52;;;;;;;;;;;22.30;54.50;;;;;;1616421;72;761;-65
2023/05/02 08:14:53;;;;;;;;;;;22.20;54.40;;;;;;1613740;72;660;-66
2023/05/02 08:16:55;;;;;;;;;;;22.30;54.50;;;;;;1619734;73;795;-66
2023/05/02 08:18:57;;;;;;;;;;;22.20;54.40;;;;;;1601423;73;1937;-65
2023/05/02 08:20:59;;;;;;;;;;;22.30;54.50;;;;;;1615300;73;1470;-66
2023/05/02 08:23:01;;;;;;;;;;;22.30;54.60;;;;;;1605433;72;788;-65
2023/05/02 08:25:03;;;;;;;;;;;22.20;54.40;;;;;;1598119;72;766;-65
2023/05/02 08:27:05;;;;;;;;;;;22.30;54.50;;;;;;1614874;72;766;-66
2023/05/02 08:29:10;;;;;;;;;;;22.30;54.70;;;;;;1604483;73;1204;-64
2023/05/02 08:31:11;;;;;;;;;;;22.20;54.80;;;;;;1599991;73;1567;-64
2023/05/02 08:33:12;;;;;;;;;;;22.20;54.90;;;;;;1604845;73;750;-65
2023/05/02 08:35:15;;;;;;;;;;;22.20;54.80;;;;;;1599791;73;1404;-65
2023/05/02 08:37:17;;;;;;;;;;;22.20;55.00;;;;;;1609550;73;730;-64
2023/05/02 08:39:19;;;;;;;;;;;22.30;55.10;;;;;;1601386;72;1934;-65
2023/05/02 08:41:21;;;;;;;;;;;22.30;55.20;;;;;;1618857;73;787;-64
2023/05/02 08:43:23;;;;;;;;;;;22.30;55.30;;;;;;1615104;73;782;-64
2023/05/02 08:45:25;;;;;;;;;;;22.40;55.40;;;;;;1596095;72;773;-64
2023/05/02 08:47:27;;;;;;;;;;;22.30;55.40;;;;;;1604426;73;750;-64
2023/05/02 08:49:29;;;;;;;;;;;22.40;55.40;;;;;;1605984;72;1559;-68
2023/05/02 08:51:35;;;;;;;;;;;22.40;55.50;;;;;;1599228;73;739;-66
2023/05/02 08:53:34;;;;;;;;;;;22.40;55.50;;;;;;1608501;73;1253;-65
2023/05/02 08:55:38;;;;;;;;;;;22.30;55.50;;;;;;1618543;73;757;-65
2023/05/02 08:57:40;;;;;;;;;;;22.30;56.00;;;;;;1621373;72;802;-65
2023/05/02 08:59:42;;;;;;;;;;;22.30;56.10;;;;;;1602022;73;1945;-64
2023/05/02 09:01:45;;;;;;;;;;;22.30;56.00;;;;;;1604338;72;750;-65
2023/05/02 09:03:46;;;;;;;;;;;22.30;56.00;;;;;;1599009;73;1585;-65
2023/05/02 09:05:50;;;;;;;;;;;22.30;56.10;;;;;;1608416;73;754;-62
2023/05/02 09:07:52;;;;;;;;;;;22.30;56.20;;;;;;1601511;72;1655;-65
2023/05/02 09:09:54;;;;;;;;;;;22.30;56.30;;;;;;1620030;72;1156;-65
2023/05/02 09:11:56;;;;;;;;;;;22.30;56.30;;;;;;1600821;72;786;-65
2023/05/02 09:14:02;;;;;;;;;;;22.30;56.40;;;;;;1618022;72;804;-65
2023/05/02 09:16:02;;;;;;;;;;;22.30;56.40;;;;;;1604727;72;1577;-65
2023/05/02 09:18:04;;;;;;;;;;;22.40;56.50;;;;;;1605756;72;748;-65
2023/05/02 09:20:06;;;;;;;;;;;22.30;56.50;;;;;;1611222;72;1923;-65
2023/05/02 09:22:08;;;;;;;;;;;22.30;56.50;;;;;;1618871;73;802;-64
2023/05/02 09:24:17;;;;;;;;;;;22.40;56.50;;;;;;1609100;72;726;-63
2023/05/02 09:26:19;;;;;;;;;;;22.30;56.60;;;;;;1598408;72;751;-64
2023/05/02 09:28:21;;;;;;;;;;;22.40;56.70;;;;;;1614813;73;744;-65
2023/05/02 09:30:23;;;;;;;;;;;22.40;56.50;;;;;;1618620;72;1459;-66
2023/05/02 09:32:26;;;;;;;;;;;22.40;56.50;;;;;;1618085;72;791;-65
2023/05/02 09:34:29;;;;;;;;;;;22.40;56.50;;;;;;1613396;73;746;-66
2023/05/02 09:36:31;;;;;;;;;;;22.40;56.60;;;;;;1614056;72;910;-66
2023/05/02 09:38:33;;;;;;;;;;;22.40;56.60;;;;;;1573753;73;1936;-66
2023/05/02 09:40:35;;;;;;;;;;;22.30;56.60;;;;;;1602737;72;1090;-65
2023/05/02 09:42:37;;;;;;;;;;;22.30;56.60;;;;;;1614438;73;760;-66
2023/05/02 09:44:39;;;;;;;;;;;22.30;56.80;;;;;;1618692;72;1504;-65
2023/05/02 09:46:47;;;;;;;;;;;22.40;56.80;;;;;;1582171;75;736;-65
2023/05/02 09:48:53;;;;;;;;;;;22.40;56.80;;;;;;1607430;73;1165;-66
2023/05/02 09:50:55;;;;;;;;;;;22.30;56.90;;;;;;1612413;72;790;-66
2023/05/02 09:52:58;;;;;;;;;;;22.40;56.90;;;;;;1608047;72;761;-66
2023/05/02 09:55:00;;;;;;;;;;;22.30;56.90;;;;;;1590064;72;1204;-65
2023/05/02 09:57:02;;;;;;;;;;;22.30;56.90;;;;;;1610350;72;763;-65
2023/05/02 09:59:13;;;;;;;;;;;22.30;56.80;;;;;;1607156;72;1928;-65
2023/05/02 10:01:15;;;;;;;;;;;22.30;56.30;;;;;;1610262;73;804;-65
2023/05/02 10:03:17;;;;;;;;;;;22.40;56.20;;;;;;1608057;72;738;-65
2023/05/02 10:05:19;;;;;;;;;;;22.30;56.30;;;;;;1610115;72;771;-64
2023/05/02 10:07:21;;;;;;;;;;;22.40;56.30;;;;;;1603721;72;730;-64
2023/05/02 10:09:23;;;;;;;;;;;22.40;56.20;;;;;;1607932;71;2052;-66
2023/05/02 10:11:25;;;;;;;;;;;22.30;56.30;;;;;;1568492;74;502;-69
2023/05/02 10:13:31;;;;;;;;;;;22.30;56.40;;;;;;1564827;74;1333;-69
2023/05/02 10:15:31;;;;;;;;;;;22.30;56.30;;;;;;1562982;74;1022;-70
2023/05/02 10:17:35;;;;;;;;;;;22.30;56.40;;;;;;1565940;74;789;-70
2023/05/02 10:19:55;;;;;;;;;;;22.20;56.30;;;;;;1553326;75;1932;-70
2023/05/02 10:21:57;;;;;;;;;;;22.20;56.40;;;;;;1562732;75;810;-68
2023/05/02 10:24:02;;;;;;;;;;;22.30;56.60;;;;;;1558936;75;762;-70
2023/05/02 10:26:03;;;;;;;;;;;22.20;56.50;;;;;;1557183;75;818;-69
2023/05/02 10:28:05;;;;;;;;;;;22.30;56.50;;;;;;1555697;74;1550;-68
2023/05/02 10:30:07;;;;;;;;;;;22.20;56.40;;;;;;1554857;74;1162;-69
2023/05/02 10:32:09;;;;;;;;;;;22.20;56.30;;;;;;1552550;74;753;-68
2023/05/02 10:34:12;;;;;;;;;;;22.20;56.30;;;;;;1556803;74;802;-69
2023/05/02 10:36:14;;;;;;;;;;;22.20;56.30;;;;;;1548128;75;815;-69
2023/05/02 10:38:18;;;;;;;;;;;22.20;56.30;;;;;;1564487;74;742;-69
2023/05/02 10:40:19;;;;;;;;;;;22.20;56.30;;;;;;1559916;74;1924;-70
2023/05/02 10:42:22;;;;;;;;;;;22.20;56.30;;;;;;1557312;75;751;-68
2023/05/02 10:44:36;;;;;;;;;;;22.30;56.30;;;;;;1562466;74;798;-69
2023/05/02 10:46:41;;;;;;;;;;;22.20;56.20;;;;;;1550893;74;731;-69
2023/05/02 10:48:43;;;;;;;;;;;22.20;56.10;;;;;;1563190;76;773;-70
2023/05/02 10:50:46;;;;;;;;;;;22.20;56.10;;;;;;1543734;77;1162;-69
2023/05/02 10:52:48;;;;;;;;;;;22.20;56.10;;;;;;1559591;74;781;-71
2023/05/02 10:54:50;;;;;;;;;;;22.20;56.10;;;;;;1548748;76;1421;-69
2023/05/02 10:57:05;;;;;;;;;;;22.20;56.10;;;;;;1561327;74;755;-69
2023/05/02 10:59:27;;;;;;;;;;;22.30;56.20;;;;;;1554423;74;1940;-69
2023/05/02 11:01:32;;;;;;;;;;;22.30;56.10;;;;;;1547419;75;1001;-69
2023/05/02 11:03:52;;;;;;;;;;;22.30;56.10;;;;;;1563333;74;1586;-69
2023/05/02 11:06:05;;;;;;;;;;;22.30;56.10;;;;;;1557539;74;796;-69
2023/05/02 11:08:17;;;;;;;;;;;22.20;55.90;;;;;;1551812;75;1438;-69
2023/05/02 11:10:21;;;;;;;;;;;22.30;56.00;;;;;;1560067;75;1587;-69
2023/05/02 11:12:40;;;;;;;;;;;22.30;56.00;;;;;;1552641;74;643;-68
2023/05/02 11:14:43;;;;;;;;;;;22.30;56.00;;;;;;1572745;74;743;-69
2023/05/02 11:17:04;;;;;;;;;;;22.30;56.00;;;;;;1558103;75;721;-68
2023/05/02 11:19:06;;;;;;;;;;;22.30;56.00;;;;;;1564897;76;1954;-70
2023/05/02 11:21:30;;;;;;;;;;;22.30;56.20;;;;;;1559063;74;1133;-70
2023/05/02 11:23:29;;;;;;;;;;;22.30;56.00;;;;;;1558269;74;1559;-69
2023/05/02 11:25:35;;;;;;;;;;;22.40;55.90;;;;;;1562103;75;801;-69
2023/05/02 11:27:42;;;;;;;;;;;22.40;55.80;;;;;;1565168;75;735;-71
2023/05/02 11:29:52;;;;;;;;;;;22.50;55.90;;;;;;1561134;76;1619;-70
2023/05/02 11:31:54;;;;;;;;;;;22.50;55.70;;;;;;1557366;75;799;-69
2023/05/02 11:33:56;;;;;;;;;;;22.60;55.70;;;;;;1554370;76;799;-69
2023/05/02 11:35:58;;;;;;;;;;;22.60;55.50;;;;;;1563720;75;744;-69
2023/05/02 11:38:05;;;;;;;;;;;22.60;55.30;;;;;;1556074;74;1594;-70
2023/05/02 11:40:11;;;;;;;;;;;22.60;55.30;;;;;;1570131;74;1942;-71
2023/05/02 11:42:32;;;;;;;;;;;22.70;55.20;;;;;;1555126;74;998;-70
2023/05/02 11:44:32;;;;;;;;;;;22.70;55.10;;;;;;1552945;75;1162;-71
2023/05/02 11:46:35;;;;;;;;;;;22.70;55.00;;;;;;1549164;74;753;-70
2023/05/02 11:48:37;;;;;;;;;;;22.60;54.90;;;;;;1564560;75;932;-70
2023/05/02 11:50:45;;;;;;;;;;;22.60;55.00;;;;;;1561780;74;1390;-71
2023/05/02 11:52:47;;;;;;;;;;;22.60;54.80;;;;;;1559839;76;777;-71
2023/05/02 11:54:49;;;;;;;;;;;22.50;55.00;;;;;;1560306;76;874;-71
2023/05/02 11:56:51;;;;;;;;;;;22.50;55.00;;;;;;1556467;74;757;-72
2023/05/02 11:58:59;;;;;;;;;;;22.30;55.00;;;;;;1550771;75;794;-70
2023/05/02 12:01:14;;;;;;;;;;;22.30;55.10;;;;;;1549019;75;1979;-70
2023/05/02 12:03:20;;;;;;;;;;;22.30;55.10;;;;;;1554118;75;740;-72
2023/05/02 12:05:31;;;;;;;;;;;22.30;55.20;;;;;;1552582;74;1431;-71
2023/05/02 12:07:43;;;;;;;;;;;22.30;55.30;;;;;;1550632;74;757;-69
2023/05/02 12:09:52;;;;;;;;;;;22.30;55.40;;;;;;1563889;74;1172;-69
2023/05/02 12:11:53;;;;;;;;;;;22.30;55.50;;;;;;1565310;74;793;-70
2023/05/02 12:13:55;;;;;;;;;;;22.30;55.40;;;;;;1555399;74;789;-70
2023/05/02 12:15:57;;;;;;;;;;;22.30;55.40;;;;;;1557273;75;801;-68